createdAt,value
2018-04-16T00:02:27.724Z,18.43
2018-04-16T00:04:56.117Z,19.60
2018-04-16T00:07:24.724Z,19.63
2018-04-16T00:09:53.075Z,17.33
2018-04-16T00:12:21.516Z,17.50
2018-04-16T00:14:49.906Z,16.00
2018-04-16T00:17:18.393Z,17.53
2018-04-16T00:19:46.768Z,19.07
2018-04-16T00:22:15.368Z,18.27
2018-04-16T00:24:44.080Z,15.70
2018-04-16T00:27:12.556Z,15.50
2018-04-16T00:29:40.911Z,16.10
2018-04-16T00:32:14.936Z,18.87
2018-04-16T00:34:49.010Z,16.67
2018-04-16T00:40:30.441Z,18.07
2018-04-16T00:43:04.626Z,16.80
2018-04-16T00:45:39.020Z,15.33
2018-04-16T00:48:13.297Z,16.13
2018-04-16T00:50:47.973Z,27.23
2018-04-16T00:53:22.017Z,16.57
2018-04-16T00:55:56.075Z,16.93
2018-04-16T00:58:30.082Z,17.63
2018-04-16T01:01:04.142Z,16.60
2018-04-16T01:03:37.942Z,16.40
2018-04-16T01:06:12.019Z,16.77
2018-04-16T01:08:46.279Z,18.13
2018-04-16T01:11:20.047Z,26.27
2018-04-16T01:13:54.235Z,23.33
2018-04-16T01:19:33.183Z,34.70
2018-04-16T01:22:07.224Z,36.97
2018-04-16T01:24:41.555Z,35.33
2018-04-16T01:30:20.529Z,16.27
2018-04-16T01:32:54.427Z,17.43
2018-04-16T01:35:28.255Z,15.23
2018-04-16T01:38:02.702Z,21.73
2018-04-16T01:40:37.108Z,24.07
2018-04-16T01:43:11.013Z,24.50
2018-04-16T01:45:45.308Z,20.33
2018-04-16T01:48:19.117Z,16.90
2018-04-16T01:50:53.040Z,17.27
2018-04-16T01:53:27.166Z,24.80
2018-04-16T01:56:00.977Z,19.77
2018-04-16T01:58:35.044Z,25.20
2018-04-16T02:01:09.128Z,20.50
2018-04-16T02:03:43.262Z,20.10
2018-04-16T02:06:17.289Z,27.27
2018-04-16T02:08:51.230Z,25.47
2018-04-16T02:11:25.531Z,19.83
2018-04-16T02:13:59.897Z,26.73
2018-04-16T02:16:33.908Z,25.70
2018-04-16T02:19:07.971Z,26.67
2018-04-16T02:21:42.398Z,23.70
2018-04-16T02:24:17.379Z,26.80
2018-04-16T02:26:51.745Z,22.03
2018-04-16T02:29:25.794Z,19.97
2018-04-16T02:31:59.750Z,18.47
2018-04-16T02:34:33.834Z,23.83
2018-04-16T02:37:07.905Z,17.73
2018-04-16T02:42:46.552Z,17.87
2018-04-16T02:45:20.674Z,19.17
2018-04-16T02:47:54.665Z,19.60
2018-04-16T02:50:28.581Z,21.33
2018-04-16T02:53:03.080Z,18.00
2018-04-16T02:55:37.285Z,19.83
2018-04-16T02:58:11.080Z,20.53
2018-04-16T03:00:45.216Z,19.10
2018-04-16T03:03:19.085Z,21.93
2018-04-16T03:05:53.296Z,19.60
2018-04-16T03:08:28.108Z,19.00
2018-04-16T03:11:02.181Z,23.60
2018-04-16T03:13:36.119Z,20.27
2018-04-16T03:16:10.318Z,20.97
2018-04-16T03:18:44.189Z,22.90
2018-04-16T03:21:18.234Z,25.33
2018-04-16T03:23:52.149Z,18.40
2018-04-16T03:26:26.232Z,16.93
2018-04-16T03:29:00.058Z,19.23
2018-04-16T03:31:34.172Z,20.50
2018-04-16T03:34:09.033Z,24.13
2018-04-16T03:36:43.129Z,24.10
2018-04-16T03:39:17.042Z,24.83
2018-04-16T03:41:50.987Z,23.80
2018-04-16T03:44:24.909Z,21.13
2018-04-16T03:46:58.973Z,33.67
2018-04-16T03:49:33.331Z,23.80
2018-04-16T03:52:09.193Z,23.83
2018-04-16T03:54:38.136Z,41.80
2018-04-16T03:57:06.493Z,22.53
2018-04-16T03:59:34.875Z,21.90
2018-04-16T04:02:03.237Z,24.53
2018-04-16T04:04:31.681Z,44.57
2018-04-16T04:07:00.207Z,42.13
2018-04-16T04:09:28.713Z,25.60
2018-04-16T04:11:57.225Z,24.03
2018-04-16T04:14:25.646Z,25.97
2018-04-16T04:16:54.259Z,24.57
2018-04-16T04:19:22.726Z,25.03
2018-04-16T04:21:51.157Z,26.27
2018-04-16T04:24:31.849Z,41.27
2018-04-16T04:27:12.247Z,155.07
2018-04-16T04:29:52.961Z,83.80
2018-04-16T04:32:21.512Z,24.63
2018-04-16T04:34:49.960Z,27.47
2018-04-16T04:37:18.345Z,23.13
2018-04-16T04:39:47.329Z,21.17
2018-04-16T04:42:15.777Z,18.80
2018-04-16T04:44:44.244Z,23.60
2018-04-16T04:47:12.933Z,35.23
2018-04-16T04:49:41.364Z,25.13
2018-04-16T04:52:10.148Z,21.40
2018-04-16T04:54:39.058Z,21.87
2018-04-16T04:57:08.993Z,28.77
2018-04-16T04:59:37.350Z,70.70
2018-04-16T05:02:06.589Z,43.30
2018-04-16T05:04:36.560Z,36.43
2018-04-16T05:07:04.985Z,44.87
2018-04-16T05:09:34.250Z,42.90
2018-04-16T05:12:03.242Z,55.23
2018-04-16T05:14:31.786Z,97.70
2018-04-16T05:17:00.507Z,55.10
2018-04-16T05:19:28.887Z,49.57
2018-04-16T05:21:57.962Z,48.93
2018-04-16T05:24:26.605Z,62.13
2018-04-16T05:26:55.104Z,48.33
2018-04-16T05:29:23.769Z,43.73
2018-04-16T05:31:52.649Z,50.70
2018-04-16T05:34:21.030Z,53.53
2018-04-16T05:36:49.679Z,51.90
2018-04-16T05:39:18.845Z,50.17
2018-04-16T05:41:47.275Z,47.77
2018-04-16T05:44:16.163Z,54.20
2018-04-16T05:46:44.592Z,44.20
2018-04-16T05:49:13.003Z,56.07
2018-04-16T05:51:41.353Z,50.87
2018-04-16T05:54:10.104Z,53.57
2018-04-16T05:56:38.525Z,45.93
2018-04-16T05:59:06.905Z,48.20
2018-04-16T06:01:36.263Z,59.20
2018-04-16T06:04:04.710Z,53.27
2018-04-16T06:06:33.077Z,44.20
2018-04-16T06:09:01.511Z,54.43
2018-04-16T06:11:30.336Z,40.67
2018-04-16T06:13:59.277Z,42.10
2018-04-16T06:16:27.719Z,39.43
2018-04-16T06:18:56.697Z,52.70
2018-04-16T06:21:25.361Z,69.73
2018-04-16T06:23:53.788Z,59.70
2018-04-16T06:26:22.815Z,51.53
2018-04-16T06:28:51.295Z,47.30
2018-04-16T06:31:19.692Z,45.50
2018-04-16T06:33:48.340Z,123.17
2018-04-16T06:36:16.874Z,109.73
2018-04-16T06:38:48.925Z,109.10
2018-04-16T06:41:17.807Z,54.10
2018-04-16T06:43:46.165Z,72.30
2018-04-16T06:46:15.514Z,59.47
2018-04-16T06:48:44.112Z,51.20
2018-04-16T06:51:12.596Z,52.63
2018-04-16T06:53:40.997Z,47.03
2018-04-16T06:56:10.522Z,47.40
2018-04-16T06:58:38.956Z,36.20
2018-04-16T07:01:08.004Z,32.60
2018-04-16T07:03:36.726Z,36.87
2018-04-16T07:06:05.961Z,40.13
2018-04-16T07:08:34.329Z,39.87
2018-04-16T07:11:02.756Z,35.80
2018-04-16T07:13:31.135Z,33.83
2018-04-16T07:15:59.674Z,39.63
2018-04-16T07:18:28.347Z,38.70
2018-04-16T07:20:57.054Z,43.53
2018-04-16T07:23:25.659Z,41.20
2018-04-16T07:25:54.037Z,37.77
2018-04-16T07:28:22.742Z,43.23
2018-04-16T07:30:51.591Z,44.60
2018-04-16T07:33:20.320Z,42.17
2018-04-16T07:35:49.084Z,37.93
2018-04-16T07:38:18.065Z,38.87
2018-04-16T07:40:47.586Z,42.73
2018-04-16T07:43:16.063Z,56.13
2018-04-16T07:45:44.978Z,46.30
2018-04-16T07:48:13.839Z,60.20
2018-04-16T07:50:42.622Z,56.50
2018-04-16T07:53:11.057Z,53.37
2018-04-16T07:55:39.523Z,56.47
2018-04-16T07:58:07.883Z,56.63
2018-04-16T08:00:36.245Z,50.90
2018-04-16T08:03:04.615Z,63.40
2018-04-16T08:05:33.451Z,74.60
2018-04-16T08:08:01.915Z,70.90
2018-04-16T08:10:30.313Z,74.87
2018-04-16T08:12:59.021Z,59.37
2018-04-16T08:15:27.852Z,64.13
2018-04-16T08:17:56.202Z,55.53
2018-04-16T08:20:24.807Z,48.97
2018-04-16T08:22:53.432Z,55.60
2018-04-16T08:25:21.889Z,59.20
2018-04-16T08:27:50.359Z,65.83
2018-04-16T08:30:18.730Z,75.53
2018-04-16T08:32:48.049Z,53.70
2018-04-16T08:35:16.611Z,35.43
2018-04-16T08:37:45.773Z,39.27
2018-04-16T08:40:14.244Z,42.40
2018-04-16T08:42:43.234Z,29.47
2018-04-16T08:45:12.023Z,36.30
2018-04-16T08:47:40.424Z,39.43
2018-04-16T08:50:09.298Z,38.80
2018-04-16T08:52:38.360Z,49.47
2018-04-16T08:55:07.004Z,41.87
2018-04-16T08:57:35.465Z,34.57
2018-04-16T09:00:03.943Z,33.87
2018-04-16T09:02:32.382Z,47.33
2018-04-16T09:05:00.738Z,37.27
2018-04-16T09:07:29.336Z,42.20
2018-04-16T09:09:57.966Z,35.87
2018-04-16T09:12:26.641Z,32.80
2018-04-16T09:14:55.643Z,34.73
2018-04-16T09:17:24.153Z,40.87
2018-04-16T09:19:52.487Z,36.97
2018-04-16T09:22:21.082Z,36.07
2018-04-16T09:24:49.929Z,45.20
2018-04-16T09:27:18.712Z,38.07
2018-04-16T09:29:47.111Z,45.33
2018-04-16T09:32:16.267Z,40.70
2018-04-16T09:34:44.638Z,35.27
2018-04-16T09:37:13.077Z,37.47
2018-04-16T09:39:41.736Z,36.27
2018-04-16T09:42:10.441Z,34.90
2018-04-16T09:44:39.338Z,35.30
2018-04-16T09:47:08.012Z,36.60
2018-04-16T09:49:36.846Z,46.07
2018-04-16T09:52:05.467Z,37.77
2018-04-16T09:54:34.357Z,43.30
2018-04-16T09:57:02.716Z,42.10
2018-04-16T09:59:31.364Z,38.77
2018-04-16T10:01:59.740Z,41.13
2018-04-16T10:04:28.461Z,38.10
2018-04-16T10:06:57.117Z,41.17
2018-04-16T10:09:25.565Z,35.97
2018-04-16T10:11:53.941Z,37.40
2018-04-16T10:14:23.270Z,33.63
2018-04-16T10:16:51.930Z,40.40
2018-04-16T10:19:20.932Z,35.13
2018-04-16T10:21:49.351Z,54.07
2018-04-16T10:24:18.061Z,32.80
2018-04-16T10:26:46.700Z,31.00
2018-04-16T10:29:15.402Z,20.73
2018-04-16T10:31:44.561Z,23.13
2018-04-16T10:34:13.277Z,21.80
2018-04-16T10:36:42.842Z,18.53
2018-04-16T10:39:11.860Z,24.57
2018-04-16T10:41:41.454Z,21.37
2018-04-16T10:44:09.837Z,21.97
2018-04-16T10:46:38.563Z,21.10
2018-04-16T10:49:07.394Z,17.77
2018-04-16T10:51:35.771Z,21.33
2018-04-16T10:54:04.485Z,26.17
2018-04-16T10:56:32.868Z,21.03
2018-04-16T10:59:02.644Z,20.50
2018-04-16T11:01:32.160Z,20.03
2018-04-16T11:04:00.855Z,18.13
2018-04-16T11:06:29.472Z,20.23
2018-04-16T11:08:57.853Z,20.60
2018-04-16T11:11:26.248Z,20.87
2018-04-16T11:13:55.115Z,23.77
2018-04-16T11:16:24.130Z,23.83
2018-04-16T11:18:54.084Z,22.67
2018-04-16T11:21:23.040Z,27.47
2018-04-16T11:23:52.183Z,22.73
2018-04-16T11:26:22.010Z,33.57
2018-04-16T11:28:52.215Z,28.00
2018-04-16T11:31:20.822Z,36.33
2018-04-16T11:33:50.483Z,27.20
2018-04-16T11:36:19.831Z,21.27
2018-04-16T11:38:48.656Z,20.10
2018-04-16T11:41:17.025Z,24.80
2018-04-16T11:43:45.390Z,21.97
2018-04-16T11:46:13.764Z,19.63
2018-04-16T11:48:42.164Z,27.93
2018-04-16T11:51:10.605Z,26.37
2018-04-16T11:53:38.969Z,19.10
2018-04-16T11:56:07.475Z,29.77
2018-04-16T11:58:35.911Z,26.13
2018-04-16T12:01:04.370Z,21.07
2018-04-16T12:03:32.820Z,25.27
2018-04-16T12:06:01.284Z,24.83
2018-04-16T12:08:29.835Z,23.07
2018-04-16T12:10:58.196Z,20.47
2018-04-16T12:13:26.563Z,24.67
2018-04-16T12:15:54.972Z,21.00
2018-04-16T12:18:24.439Z,20.33
2018-04-16T12:20:52.894Z,41.07
2018-04-16T12:23:21.660Z,29.90
2018-04-16T12:25:50.063Z,27.70
2018-04-16T12:28:18.587Z,24.63
2018-04-16T12:30:47.060Z,21.70
2018-04-16T12:33:16.709Z,88.87
2018-04-16T12:35:45.399Z,37.67
2018-04-16T12:38:14.266Z,23.60
2018-04-16T12:40:42.689Z,26.93
2018-04-16T12:43:11.572Z,26.63
2018-04-16T12:45:40.514Z,27.23
2018-04-16T12:48:09.012Z,26.47
2018-04-16T12:50:37.354Z,19.97
2018-04-16T12:53:06.377Z,20.60
2018-04-16T12:55:34.861Z,22.83
2018-04-16T12:58:03.310Z,19.33
2018-04-16T13:00:32.209Z,22.03
2018-04-16T13:03:01.079Z,21.73
2018-04-16T13:05:29.668Z,18.43
2018-04-16T13:07:58.515Z,17.67
2018-04-16T13:10:26.939Z,18.47
2018-04-16T13:12:55.311Z,20.70
2018-04-16T13:15:23.904Z,23.73
2018-04-16T13:17:52.682Z,24.50
2018-04-16T13:20:21.477Z,19.60
2018-04-16T13:22:49.862Z,22.30
2018-04-16T13:25:18.759Z,22.87
2018-04-16T13:27:47.181Z,23.33
2018-04-16T13:30:15.549Z,24.57
2018-04-16T13:32:44.003Z,24.17
2018-04-16T13:35:12.811Z,18.63
2018-04-16T13:37:41.201Z,24.93
2018-04-16T13:40:09.837Z,24.37
2018-04-16T13:42:38.416Z,25.00
2018-04-16T13:45:07.603Z,28.67
2018-04-16T13:47:35.975Z,28.57
2018-04-16T13:50:04.520Z,22.90
2018-04-16T13:52:33.114Z,23.00
2018-04-16T13:55:02.114Z,26.53
2018-04-16T13:57:30.940Z,36.10
2018-04-16T13:59:59.419Z,22.53
2018-04-16T14:02:27.941Z,22.93
2018-04-16T14:04:56.855Z,14.43
2018-04-16T14:07:26.048Z,21.47
2018-04-16T14:09:54.479Z,24.17
2018-04-16T14:12:22.856Z,18.80
2018-04-16T14:14:51.392Z,16.20
2018-04-16T14:17:19.964Z,18.33
2018-04-16T14:19:48.570Z,19.10
2018-04-16T14:22:16.995Z,12.67
2018-04-16T14:24:45.743Z,15.50
2018-04-16T14:27:14.099Z,13.53
2018-04-16T14:29:43.418Z,17.77
2018-04-16T14:32:11.800Z,16.00
2018-04-16T14:34:40.780Z,16.37
2018-04-16T14:37:09.150Z,12.33
2018-04-16T14:39:37.918Z,15.27
2018-04-16T14:42:06.728Z,11.83
2018-04-16T14:44:35.362Z,12.37
2018-04-16T14:47:04.120Z,14.33
2018-04-16T14:49:32.507Z,16.33
2018-04-16T14:52:01.121Z,11.90
2018-04-16T14:54:29.591Z,14.37
2018-04-16T14:56:58.796Z,14.97
2018-04-16T14:59:27.919Z,20.97
2018-04-16T15:01:56.345Z,15.90
2018-04-16T15:04:24.718Z,12.10
2018-04-16T15:06:53.076Z,14.00
2018-04-16T15:09:21.449Z,17.90
2018-04-16T15:11:49.828Z,28.57
2018-04-16T15:14:18.232Z,30.93
2018-04-16T15:16:46.600Z,46.87
2018-04-16T15:19:15.733Z,53.03
2018-04-16T15:21:44.428Z,31.93
2018-04-16T15:24:12.824Z,34.43
2018-04-16T15:26:41.476Z,35.67
2018-04-16T15:29:12.335Z,33.83
2018-04-16T15:31:40.812Z,36.70
2018-04-16T15:34:11.383Z,36.03
2018-04-16T15:36:40.446Z,39.03
2018-04-16T15:39:09.663Z,39.17
2018-04-16T15:41:38.220Z,38.30
2018-04-16T15:44:09.516Z,36.17
2018-04-16T15:46:39.224Z,29.57
2018-04-16T15:49:08.560Z,32.43
2018-04-16T15:51:38.805Z,33.00
2018-04-16T15:54:08.185Z,34.37
2018-04-16T15:56:36.778Z,32.77
2018-04-16T15:59:06.012Z,35.80
2018-04-16T16:01:35.534Z,55.53
2018-04-16T16:04:03.924Z,47.43
2018-04-16T16:06:34.923Z,40.60
2018-04-16T16:09:03.296Z,41.30
2018-04-16T16:11:31.660Z,41.73
2018-04-16T16:14:00.022Z,54.60
2018-04-16T16:16:28.410Z,52.67
2018-04-16T16:18:56.785Z,45.10
2018-04-16T16:21:25.780Z,53.37
2018-04-16T16:23:54.164Z,45.00
2018-04-16T16:26:22.565Z,50.13
2018-04-16T16:28:51.277Z,44.90
2018-04-16T16:31:20.112Z,54.80
2018-04-16T16:33:49.014Z,58.70
2018-04-16T16:36:17.971Z,49.13
2018-04-16T16:38:46.819Z,48.73
2018-04-16T16:41:15.589Z,50.47
2018-04-16T16:43:44.429Z,38.83
2018-04-16T16:46:15.337Z,40.50
2018-04-16T16:48:47.694Z,44.17
2018-04-16T16:51:16.157Z,51.33
2018-04-16T16:53:44.536Z,43.33
2018-04-16T16:56:12.935Z,51.47
2018-04-16T16:58:41.648Z,45.37
2018-04-16T17:01:10.045Z,40.53
2018-04-16T17:03:39.280Z,40.00
2018-04-16T17:06:07.684Z,38.27
2018-04-16T17:08:36.060Z,40.27
2018-04-16T17:11:04.801Z,33.70
2018-04-16T17:13:34.910Z,38.70
2018-04-16T17:16:03.378Z,37.00
2018-04-16T17:18:31.760Z,43.83
2018-04-16T17:21:00.220Z,46.40
2018-04-16T17:23:28.888Z,42.13
2018-04-16T17:25:58.207Z,26.37
2018-04-16T17:28:26.676Z,22.87
2018-04-16T17:30:55.147Z,25.40
2018-04-16T17:33:25.230Z,23.87
2018-04-16T17:35:53.667Z,24.40
2018-04-16T17:38:22.556Z,30.20
2018-04-16T17:40:51.137Z,25.93
2018-04-16T17:43:20.031Z,23.60
2018-04-16T17:45:48.816Z,24.43
2018-04-16T17:48:17.666Z,20.73
2018-04-16T17:50:46.700Z,21.33
2018-04-16T17:53:16.448Z,29.67
2018-04-16T17:55:46.081Z,21.10
2018-04-16T17:58:14.464Z,24.87
2018-04-16T18:00:42.860Z,21.97
2018-04-16T18:03:11.882Z,22.97
2018-04-16T18:05:41.738Z,27.40
2018-04-16T18:08:10.293Z,29.90
2018-04-16T18:10:40.426Z,21.43
2018-04-16T18:13:09.122Z,29.53
2018-04-16T18:15:37.768Z,34.47
2018-04-16T18:18:06.375Z,31.13
2018-04-16T18:20:34.956Z,29.33
2018-04-16T18:23:04.676Z,31.70
2018-04-16T18:25:33.044Z,37.83
2018-04-16T18:28:03.124Z,30.23
2018-04-16T18:30:32.525Z,37.33
2018-04-16T18:33:01.074Z,36.93
2018-04-16T18:38:05.234Z,31.87
2018-04-16T18:40:33.959Z,30.30
2018-04-16T18:43:03.244Z,26.33
2018-04-16T18:45:31.928Z,25.47
2018-04-16T18:48:00.534Z,29.43
2018-04-16T18:50:29.119Z,28.77
2018-04-16T18:52:57.634Z,21.43
2018-04-16T18:55:26.421Z,27.33
2018-04-16T18:57:54.961Z,24.60
2018-04-16T19:00:23.859Z,27.80
2018-04-16T19:02:52.284Z,28.30
2018-04-16T19:05:21.304Z,46.60
2018-04-16T19:07:50.113Z,27.90
2018-04-16T19:10:18.950Z,33.83
2018-04-16T19:12:47.762Z,27.80
2018-04-16T19:15:16.190Z,25.27
2018-04-16T19:17:50.254Z,21.00
2018-04-16T19:20:24.199Z,22.17
2018-04-16T19:22:52.580Z,24.13
2018-04-16T19:25:21.103Z,21.73
2018-04-16T19:27:55.322Z,28.47
2018-04-16T19:30:23.815Z,18.93
2018-04-16T19:32:57.693Z,18.93
2018-04-16T19:35:26.296Z,22.40
2018-04-16T19:37:54.839Z,20.73
2018-04-16T19:40:23.225Z,21.80
2018-04-16T19:42:51.603Z,22.60
2018-04-16T19:45:21.182Z,29.47
2018-04-16T19:47:49.571Z,24.27
2018-04-16T19:50:18.011Z,21.53
2018-04-16T19:52:46.492Z,23.70
2018-04-16T19:55:14.859Z,26.67
2018-04-16T19:57:48.871Z,28.20
2018-04-16T20:00:17.581Z,32.67
2018-04-16T20:02:52.054Z,29.70
2018-04-16T20:05:20.627Z,33.87
2018-04-16T20:07:48.994Z,32.87
2018-04-16T20:10:17.388Z,31.17
2018-04-16T20:12:45.794Z,34.83
2018-04-16T20:15:14.163Z,32.37
2018-04-16T20:17:42.566Z,35.80
2018-04-16T20:20:10.972Z,29.53
2018-04-16T20:22:39.803Z,32.77
2018-04-16T20:25:08.265Z,34.43
2018-04-16T20:27:36.738Z,34.93
2018-04-16T20:30:05.125Z,32.87
2018-04-16T20:32:33.667Z,35.10
2018-04-16T20:35:02.714Z,34.57
2018-04-16T20:37:31.441Z,41.97
2018-04-16T20:39:59.901Z,32.93
2018-04-16T20:42:28.276Z,31.73
2018-04-16T20:45:03.957Z,36.80
2018-04-16T20:47:32.479Z,37.50
2018-04-16T20:50:00.887Z,31.77
2018-04-16T20:52:29.324Z,35.57
2018-04-16T20:54:57.752Z,34.63
2018-04-16T20:57:26.136Z,37.30
2018-04-16T20:59:54.548Z,42.60
2018-04-16T21:02:22.925Z,40.37
2018-04-16T21:04:51.388Z,38.40
2018-04-16T21:07:19.794Z,38.87
2018-04-16T21:09:48.484Z,37.47
2018-04-16T21:12:16.870Z,38.87
2018-04-16T21:14:45.235Z,33.10
2018-04-16T21:17:14.747Z,35.53
2018-04-16T21:19:44.351Z,32.90
2018-04-16T21:22:12.890Z,36.93
2018-04-16T21:24:41.735Z,38.63
2018-04-16T21:27:10.183Z,35.37
2018-04-16T21:29:38.755Z,36.43
2018-04-16T21:32:07.195Z,36.10
2018-04-16T21:34:35.937Z,36.20
2018-04-16T21:37:04.339Z,36.80
2018-04-16T21:39:32.929Z,37.47
2018-04-16T21:42:01.362Z,37.53
2018-04-16T21:44:30.205Z,35.10
2018-04-16T21:46:58.968Z,36.57
2018-04-16T21:49:29.259Z,38.60
2018-04-16T21:51:58.706Z,38.83
2018-04-16T21:54:27.615Z,35.27
2018-04-16T21:56:56.356Z,33.93
2018-04-16T21:59:24.871Z,39.13
2018-04-16T22:01:53.387Z,37.63
2018-04-16T22:04:21.748Z,36.43
2018-04-16T22:06:50.208Z,34.77
2018-04-16T22:09:18.641Z,39.80
2018-04-16T22:11:47.167Z,34.20
2018-04-16T22:14:15.615Z,32.87
2018-04-16T22:16:43.998Z,34.70
2018-04-16T22:19:12.368Z,32.30
2018-04-16T22:21:40.797Z,30.73
2018-04-16T22:24:09.218Z,31.47
2018-04-16T22:26:37.580Z,35.53
2018-04-16T22:29:06.180Z,38.47
2018-04-16T22:31:34.764Z,35.10
2018-04-16T22:34:03.449Z,34.00
2018-04-16T22:36:32.068Z,30.77
2018-04-16T22:39:00.468Z,35.23
2018-04-16T22:41:28.818Z,38.10
2018-04-16T22:43:57.175Z,34.57
2018-04-16T22:46:25.539Z,39.63
2018-04-16T22:48:53.946Z,39.73
2018-04-16T22:51:22.379Z,38.57
2018-04-16T22:53:50.737Z,43.10
2018-04-16T22:56:19.462Z,47.43
2018-04-16T22:58:47.865Z,42.47
2018-04-16T23:01:16.236Z,37.07
2018-04-16T23:03:45.328Z,37.97
2018-04-16T23:06:14.259Z,39.20
2018-04-16T23:08:43.921Z,33.33
2018-04-16T23:11:12.777Z,31.23
2018-04-16T23:13:41.661Z,30.60
2018-04-16T23:16:12.095Z,31.30
2018-04-16T23:18:41.932Z,29.40
2018-04-16T23:21:13.167Z,30.33
2018-04-16T23:23:41.755Z,28.50
2018-04-16T23:26:21.438Z,27.80
2018-04-16T23:28:49.895Z,33.70
2018-04-16T23:31:18.437Z,27.00
2018-04-16T23:33:48.079Z,28.07
2018-04-16T23:36:16.525Z,26.60
2018-04-16T23:38:46.568Z,27.40
2018-04-16T23:41:15.704Z,28.63
2018-04-16T23:43:44.509Z,29.87
2018-04-16T23:46:14.441Z,27.30
2018-04-16T23:48:43.721Z,26.87
2018-04-16T23:51:15.899Z,22.53
2018-04-16T23:53:45.960Z,23.13
2018-04-16T23:56:14.467Z,26.13
2018-04-16T23:58:45.384Z,22.40
